Terminal Aerodrome Forecast
Issued by NWS Grand Junction, CO

Home | Current Version | Previous Version | Text Only | Print | Product List | Glossary On
Versions: 1 2 3 4 5 6 7 8 9 10 11 12 13 14 15 16 17 18 19 20 21 22
000
FTUS45 KGJT 010549
TAFGJT
TAF
KGJT 010549Z 0106/0206 03006KT P6SM SCT060 BKN200
     FM011000 11007KT P6SM BKN200
     FM011800 12004KT P6SM BKN100
     FM012100 14008G15KT P6SM VCSH SCT060 BKN100
     FM020300 04005KT P6SM VCSH BKN060=

USA.gov is the U.S. government's official web portal to all federal, state and local government web resources and services.